createdAt,value
2018-04-23T16:25:59.333Z,91.30
2018-04-23T16:28:26.789Z,91.40
2018-04-23T16:30:54.259Z,91.60
2018-04-23T16:33:21.781Z,91.80
2018-04-23T16:35:49.231Z,91.40
2018-04-23T16:38:16.707Z,91.40
2018-04-23T16:40:44.150Z,91.60
2018-04-23T16:43:11.594Z,91.70
2018-04-23T16:45:39.058Z,91.60
2018-04-23T16:48:06.559Z,91.80
2018-04-23T16:50:34.792Z,91.80
2018-04-23T16:53:02.253Z,91.80
2018-04-23T16:55:29.769Z,91.50
2018-04-23T16:57:57.248Z,91.70
2018-04-23T17:00:24.743Z,91.60
2018-04-23T17:02:52.983Z,90.60
2018-04-23T17:05:20.497Z,90.60
2018-04-23T17:07:47.994Z,91.00
2018-04-23T17:10:15.499Z,91.50
2018-04-23T17:12:42.980Z,91.40
2018-04-23T17:15:10.453Z,91.30
2018-04-23T17:17:38.025Z,90.30
2018-04-23T17:20:05.541Z,90.20
2018-04-23T17:22:32.986Z,90.40
2018-04-23T17:25:00.536Z,91.10
2018-04-23T17:27:28.047Z,90.70
2018-04-23T17:29:55.598Z,90.90
2018-04-23T17:32:23.070Z,90.40
2018-04-23T17:34:51.278Z,90.40
2018-04-23T17:37:18.750Z,90.40
2018-04-23T17:39:46.201Z,90.90
2018-04-23T17:42:13.700Z,90.40
2018-04-23T17:44:41.154Z,90.00
2018-04-23T17:47:08.641Z,90.20
2018-04-23T17:49:36.245Z,89.90
2018-04-23T17:52:04.030Z,90.30
2018-04-23T17:54:31.509Z,88.10
2018-04-23T17:56:59.103Z,88.10
2018-04-23T17:59:26.600Z,88.60
2018-04-23T18:01:54.091Z,90.20
2018-04-23T18:04:21.582Z,90.10
2018-04-23T18:06:49.043Z,90.40
2018-04-23T18:09:16.630Z,88.90
2018-04-23T18:11:44.886Z,90.90
2018-04-23T18:14:12.381Z,90.40
2018-04-23T18:16:39.932Z,90.10
2018-04-23T18:19:07.511Z,90.10
2018-04-23T18:21:35.029Z,89.20
2018-04-23T18:24:03.248Z,90.90
2018-04-23T18:26:30.705Z,90.50
2018-04-23T18:28:58.171Z,90.30
2018-04-23T18:31:25.697Z,90.80
2018-04-23T18:33:53.242Z,90.40
2018-04-23T18:36:20.693Z,90.30
2018-04-23T18:38:48.158Z,90.50
2018-04-23T18:41:15.627Z,90.40
2018-04-23T18:43:43.229Z,90.10
2018-04-23T18:46:11.501Z,90.70
2018-04-23T18:48:38.996Z,90.70
2018-04-23T18:51:06.483Z,90.70
2018-04-23T18:53:33.946Z,91.30
2018-04-23T18:56:01.592Z,91.30
2018-04-23T18:58:29.075Z,90.70
2018-04-23T19:00:56.613Z,90.50
2018-04-23T19:03:24.112Z,90.50
2018-04-23T19:05:52.358Z,90.80
2018-04-23T19:08:19.861Z,90.80
2018-04-23T19:10:47.337Z,90.70
2018-04-23T19:13:14.844Z,90.50
2018-04-23T19:15:42.373Z,90.60
2018-04-23T19:18:09.799Z,90.90
2018-04-23T19:20:37.366Z,90.90
2018-04-23T19:23:05.090Z,91.20
2018-04-23T19:25:32.606Z,91.10
2018-04-23T19:28:00.091Z,91.20
2018-04-23T19:30:27.584Z,91.50
2018-04-23T19:32:55.084Z,91.60
2018-04-23T19:35:22.549Z,91.70
2018-04-23T19:37:50.880Z,91.50
2018-04-23T19:40:18.340Z,91.50
2018-04-23T19:42:45.865Z,91.80
2018-04-23T19:45:13.338Z,91.70
2018-04-23T19:47:40.851Z,91.50
2018-04-23T19:50:08.352Z,91.90
2018-04-23T19:52:35.809Z,92.00
2018-04-23T19:55:03.295Z,92.00
2018-04-23T19:57:31.522Z,91.90
2018-04-23T19:59:59.879Z,92.20
2018-04-23T20:02:27.372Z,92.10
2018-04-23T20:04:55.337Z,92.40
2018-04-23T20:07:22.802Z,92.30
2018-04-23T20:09:50.369Z,92.30
2018-04-23T20:12:17.746Z,92.30
2018-04-23T20:14:45.229Z,92.50
2018-04-23T20:17:12.679Z,92.40
2018-04-23T20:19:40.149Z,92.30
2018-04-23T20:22:07.625Z,92.40
2018-04-23T20:24:35.181Z,92.40
2018-04-23T20:27:02.700Z,92.50
2018-04-23T20:29:30.287Z,92.80
2018-04-23T20:31:57.778Z,92.60
2018-04-23T20:34:25.296Z,92.20
2018-04-23T20:36:52.746Z,92.70
2018-04-23T20:39:20.340Z,92.40
2018-04-23T20:41:47.997Z,92.70
2018-04-23T20:44:15.610Z,92.70
2018-04-23T20:46:43.164Z,92.70
2018-04-23T20:49:11.594Z,92.90
2018-04-23T20:51:39.183Z,92.90
2018-04-23T20:54:06.973Z,92.80
2018-04-23T20:56:34.644Z,93.00
2018-04-23T20:59:02.259Z,93.00
2018-04-23T21:01:29.792Z,93.20
2018-04-23T21:03:57.293Z,92.90
2018-04-23T21:06:24.785Z,93.00
2018-04-23T21:08:53.001Z,92.60
2018-04-23T21:11:20.477Z,92.60
2018-04-23T21:13:47.997Z,92.80
2018-04-23T21:16:15.480Z,92.50
2018-04-23T21:18:43.060Z,92.60
2018-04-23T21:21:10.530Z,92.80
2018-04-23T21:23:38.135Z,92.90
2018-04-23T21:26:05.601Z,92.80
2018-04-23T21:28:33.122Z,92.60
2018-04-23T21:31:00.588Z,92.60
2018-04-23T21:33:28.089Z,92.60
2018-04-23T21:35:55.578Z,92.70
2018-04-23T21:38:23.920Z,92.60
2018-04-23T21:40:51.370Z,92.50
2018-04-23T21:43:18.869Z,92.10
2018-04-23T21:45:46.343Z,92.30
2018-04-23T21:48:13.799Z,92.30
2018-04-23T21:53:15.188Z,91.90
2018-04-23T21:55:42.706Z,91.80
2018-04-23T21:58:10.177Z,91.90
2018-04-23T22:00:37.672Z,92.30
2018-04-23T22:03:05.964Z,92.60
2018-04-23T22:05:34.171Z,91.90
2018-04-23T22:08:01.632Z,91.90
2018-04-23T22:10:29.115Z,92.10
2018-04-23T22:12:57.391Z,92.50
2018-04-23T22:15:25.629Z,92.60
2018-04-23T22:17:53.134Z,92.60
2018-04-23T22:20:20.596Z,92.80
2018-04-23T22:22:48.820Z,92.60
2018-04-23T22:25:16.397Z,92.60
2018-04-23T22:27:43.908Z,92.60
2018-04-23T22:30:11.385Z,93.10
2018-04-23T22:32:38.855Z,93.40
2018-04-23T22:35:06.373Z,92.80
2018-04-23T22:37:33.842Z,92.90
2018-04-23T22:40:01.297Z,93.30
2018-04-23T22:42:28.762Z,93.50
2018-04-23T22:44:56.228Z,93.50
2018-04-23T22:47:23.676Z,93.80
2018-04-23T22:49:51.220Z,93.30
2018-04-23T22:52:18.700Z,94.30
2018-04-23T22:54:46.151Z,94.30
2018-04-23T22:57:13.652Z,94.50
2018-04-23T22:59:41.086Z,95.30
2018-04-23T23:02:09.339Z,94.90
2018-04-23T23:04:36.800Z,94.90
2018-04-23T23:07:04.247Z,95.00
2018-04-23T23:09:31.712Z,94.90
2018-04-23T23:11:59.271Z,94.30
2018-04-23T23:14:27.501Z,94.00
2018-04-23T23:16:54.999Z,93.90
2018-04-23T23:19:22.467Z,93.90
2018-04-23T23:21:50.739Z,94.10
2018-04-23T23:24:18.198Z,94.10
2018-04-23T23:26:46.411Z,94.10
2018-04-23T23:29:13.867Z,94.10
2018-04-23T23:31:41.313Z,94.00
2018-04-23T23:34:08.770Z,94.00
2018-04-23T23:36:36.232Z,94.10
2018-04-23T23:39:03.701Z,94.40
2018-04-23T23:41:31.154Z,94.20
2018-04-23T23:43:58.629Z,94.10
2018-04-23T23:46:26.138Z,94.10
2018-04-23T23:48:53.581Z,93.50
2018-04-23T23:51:21.061Z,93.90
2018-04-23T23:53:48.526Z,95.30
2018-04-23T23:56:15.995Z,96.40
2018-04-23T23:58:43.461Z,97.00
